Time;durP1;ratioP1;P1;durP2;ratioP2;P2;SDS_P1;SDS_P2;PMS_P1;PMS_P2;Temp;Humidity;BMP_temperature;BMP_pressure;BME280_temperature;BME280_humidity;BME280_pressure;Samples;Min_cycle;Max_cycle;Signal;HPM_P1;HPM_P2
2023/09/13 00:01:12;;;;;;;5.97;1.50;;;16.80;99.90;;;16.19;100.00;101419.28;4187755;28;20485;-72
2023/09/13 00:03:13;;;;;;;3.65;1.45;;;16.80;99.90;;;16.19;100.00;101413.16;4187928;28;20025;-72
2023/09/13 00:05:14;;;;;;;4.00;1.25;;;16.70;99.90;;;16.18;100.00;101417.63;4202816;28;20021;-72
2023/09/13 00:07:14;;;;;;;4.78;1.17;;;16.80;99.90;;;16.15;100.00;101414.50;4204556;28;20029;-72
2023/09/13 00:09:15;;;;;;;2.28;1.00;;;16.80;99.90;;;16.13;100.00;101414.66;4189467;28;20025;-72
2023/09/13 00:11:16;;;;;;;4.18;1.05;;;16.70;99.90;;;16.13;100.00;101414.66;4188018;28;20025;-72
2023/09/13 00:13:17;;;;;;;3.15;1.00;;;16.70;99.90;;;16.11;100.00;101406.03;4188196;28;20095;-72
2023/09/13 00:15:18;;;;;;;3.38;1.73;;;16.70;99.90;;;16.03;100.00;101412.25;4187631;28;20025;-72
2023/09/13 00:17:22;;;;;;;4.20;1.30;;;16.70;99.90;;;15.96;100.00;101413.09;4187740;28;20033;-72
2023/09/13 00:19:22;;;;;;;3.60;1.17;;;16.50;99.90;;;15.83;100.00;101413.66;4190573;28;20112;-72
2023/09/13 00:21:23;;;;;;;2.65;1.20;;;16.50;99.90;;;15.72;100.00;101424.69;4186652;28;20507;-72
2023/09/13 00:23:24;;;;;;;4.07;1.00;;;16.40;99.90;;;15.63;100.00;101430.19;4196988;28;20024;-72
2023/09/13 00:25:25;;;;;;;3.30;0.82;;;16.30;99.90;;;15.57;100.00;101437.03;4200220;28;20027;-72
2023/09/13 00:27:26;;;;;;;1.63;0.82;;;16.20;99.90;;;15.48;100.00;101430.91;4204366;28;20024;-72
2023/09/13 00:29:30;;;;;;;3.03;1.20;;;16.20;99.90;;;15.47;100.00;101428.44;4204500;28;20021;-72
2023/09/13 00:31:30;;;;;;;;;;;16.10;99.90;;;15.39;100.00;101431.91;4204354;28;20130;-72
2023/09/13 00:33:32;;;;;;;2.88;1.20;;;16.10;99.90;;;15.36;100.00;101431.41;4203605;28;19912;-72
2023/09/13 00:35:33;;;;;;;2.40;1.00;;;16.00;99.90;;;15.31;100.00;101426.63;4190972;28;20017;-72
2023/09/13 00:37:33;;;;;;;1.90;1.00;;;16.00;99.90;;;15.25;100.00;101429.13;4187560;28;20076;-72
2023/09/13 00:39:34;;;;;;;4.25;1.40;;;15.90;99.90;;;15.20;100.00;101421.63;4187535;28;20154;-72
2023/09/13 00:41:35;;;;;;;4.13;1.40;;;15.80;99.90;;;15.14;100.00;101426.84;4187405;28;20075;-72
2023/09/13 00:43:36;;;;;;;5.32;1.20;;;15.80;99.90;;;15.09;100.00;101429.13;4187417;28;20483;-72
2023/09/13 00:45:37;;;;;;;3.47;1.08;;;15.70;99.90;;;15.01;100.00;101422.03;4186078;28;20028;-72
2023/09/13 00:47:43;;;;;;;2.40;1.02;;;15.70;99.90;;;14.96;100.00;101419.84;4176125;28;20075;-72
2023/09/13 00:49:47;;;;;;;5.35;1.10;;;15.60;99.90;;;14.91;100.00;101421.34;4186064;28;20059;-73
2023/09/13 00:51:49;;;;;;;3.25;1.40;;;15.60;99.90;;;14.88;100.00;101427.84;4186203;28;20057;-72
2023/09/13 00:53:51;;;;;;;5.35;1.17;;;15.50;99.90;;;14.85;100.00;101422.88;4193657;28;20035;-72
2023/09/13 00:55:53;;;;;;;3.03;1.15;;;15.50;99.90;;;14.83;100.00;101424.03;4196866;28;20029;-73
2023/09/13 00:57:56;;;;;;;2.80;1.02;;;15.40;99.90;;;14.80;100.00;101430.50;4202622;28;20572;-72
2023/09/13 00:59:56;;;;;;;4.03;1.75;;;15.40;99.90;;;14.77;100.00;101425.53;4198323;28;20482;-72
2023/09/13 01:01:57;;;;;;;3.30;1.10;;;15.40;99.90;;;14.81;100.00;101434.00;4185550;28;20025;-72
2023/09/13 01:03:59;;;;;;;3.25;0.95;;;15.40;99.90;;;14.75;100.00;101419.56;4196900;28;20027;-72
2023/09/13 01:06:00;;;;;;;3.50;1.08;;;15.40;99.90;;;14.75;100.00;101432.00;4199945;28;20100;-72
2023/09/13 01:08:02;;;;;;;2.00;0.73;;;15.30;99.90;;;14.72;100.00;101425.22;4202342;28;20377;-72
2023/09/13 01:10:03;;;;;;;5.50;1.48;;;15.30;99.90;;;14.73;100.00;101418.06;4202191;28;20076;-72
2023/09/13 01:12:05;;;;;;;3.33;1.15;;;15.30;99.90;;;14.72;100.00;101414.59;4192689;28;20033;-72
2023/09/13 01:14:06;;;;;;;4.47;1.38;;;15.30;99.90;;;14.74;100.00;101420.56;4200301;28;20021;-72
2023/09/13 01:16:41;;;;;;;3.30;1.33;;;15.40;99.90;;;14.77;100.00;101424.69;4186843;28;20074;-72
2023/09/13 01:18:58;;;;;;;3.60;1.30;;;15.40;99.90;;;14.79;100.00;101430.66;4195002;28;20033;-72
2023/09/13 01:21:25;;;;;;;5.30;1.10;;;15.40;99.90;;;14.82;100.00;101427.66;4186952;28;20033;-72
2023/09/13 01:23:56;;;;;;;4.88;1.27;;;15.40;99.90;;;14.84;100.00;101434.47;4186857;28;20108;-72
2023/09/13 01:26:30;;;;;;;4.65;1.20;;;15.40;99.90;;;14.88;100.00;101437.63;4192019;28;20029;-72
2023/09/13 01:28:35;;;;;;;4.30;1.38;;;15.50;99.90;;;14.87;100.00;101442.09;4203391;28;20099;-72
2023/09/13 01:30:39;;;;;;;3.70;1.23;;;15.50;99.90;;;14.89;100.00;101436.66;4203085;28;20060;-72
2023/09/13 01:32:44;;;;;;;;;;;15.50;99.90;;;14.84;100.00;101431.00;4178973;28;20075;-72
2023/09/13 01:34:45;;;;;;;2.67;1.00;;;15.50;99.90;;;14.87;100.00;101444.75;4186280;28;20292;-72
2023/09/13 01:36:46;;;;;;;2.50;1.05;;;15.50;99.90;;;14.88;100.00;101443.78;4188970;28;20048;-72
2023/09/13 01:38:47;;;;;;;4.10;0.95;;;15.50;99.90;;;14.90;100.00;101443.63;4189238;28;20452;-72
2023/09/13 01:40:51;;;;;;;5.38;1.50;;;15.50;99.90;;;14.88;100.00;101442.94;4185312;28;20063;-72
2023/09/13 01:42:56;;;;;;;3.08;0.82;;;15.50;99.90;;;14.86;100.00;101443.13;4185837;28;20021;-72
2023/09/13 01:44:58;;;;;;;4.45;1.40;;;15.50;99.90;;;14.82;100.00;101441.78;4199309;28;20051;-72
2023/09/13 01:47:03;;;;;;;4.82;1.27;;;15.50;99.90;;;14.85;100.00;101444.13;4185340;28;20496;-72
2023/09/13 01:49:06;;;;;;;5.22;1.27;;;15.50;99.90;;;14.91;100.00;101450.59;4180390;28;20502;-72
2023/09/13 01:51:07;;;;;;;2.75;0.90;;;15.50;99.90;;;14.93;100.00;101445.97;4185251;28;20032;-72
2023/09/13 01:53:09;;;;;;;3.47;1.00;;;15.50;99.90;;;14.91;100.00;101438.13;4199862;28;20111;-72
2023/09/13 01:55:10;;;;;;;3.92;1.02;;;15.50;99.90;;;14.89;100.00;101445.44;4201777;28;20035;-72
2023/09/13 01:57:10;;;;;;;2.60;0.90;;;15.50;99.90;;;14.82;100.00;101440.97;4193890;28;20029;-72
2023/09/13 01:59:11;;;;;;;2.97;1.40;;;15.40;99.90;;;14.75;100.00;101442.63;4186148;28;20065;-72
2023/09/13 02:01:12;;;;;;;3.35;1.25;;;15.40;99.90;;;14.70;100.00;101444.94;4198615;28;20024;-72
2023/09/13 02:03:13;;;;;;;2.67;1.00;;;15.30;99.90;;;14.62;100.00;101436.97;4186273;28;20048;-72
2023/09/13 02:05:15;;;;;;;3.13;0.90;;;15.20;99.90;;;14.55;100.00;101441.28;4192547;28;20052;-72
2023/09/13 02:07:20;;;;;;;5.38;1.00;;;15.20;99.90;;;14.52;100.00;101447.75;4184881;28;20021;-72
2023/09/13 02:09:21;;;;;;;3.28;1.10;;;15.10;99.90;;;14.46;100.00;101442.25;4200667;28;20396;-72
2023/09/13 02:11:23;;;;;;;4.72;0.90;;;15.00;99.90;;;14.38;100.00;101440.44;4202650;28;20047;-72
2023/09/13 02:13:23;;;;;;;2.45;0.98;;;15.00;99.90;;;14.30;100.00;101440.41;4193329;28;20078;-72
2023/09/13 02:15:27;;;;;;;3.13;1.27;;;14.90;99.90;;;14.24;100.00;101441.88;4185784;28;20480;-72
2023/09/13 02:17:27;;;;;;;2.27;0.87;;;14.90;99.90;;;14.18;100.00;101442.53;4199474;28;20526;-72
2023/09/13 02:19:28;;;;;;;3.10;1.00;;;14.80;99.90;;;14.13;100.00;101442.16;4184899;28;20272;-72
2023/09/13 02:21:30;;;;;;;3.75;1.20;;;14.80;99.90;;;14.11;100.00;101440.69;4193613;28;20032;-72
2023/09/13 02:23:30;;;;;;;4.30;1.23;;;14.70;99.90;;;14.09;100.00;101440.00;4185944;28;20079;-72
2023/09/13 02:25:37;;;;;;;4.28;0.90;;;14.70;99.90;;;14.11;100.00;101444.16;4185721;28;20029;-72
2023/09/13 02:27:37;;;;;;;3.55;1.30;;;14.70;99.90;;;14.11;100.00;101449.47;4184473;28;20039;-72
2023/09/13 02:29:38;;;;;;;4.55;1.58;;;14.70;99.90;;;14.09;100.00;101447.97;4185756;28;20033;-73
2023/09/13 02:31:39;;;;;;;3.83;1.05;;;14.70;99.90;;;14.08;100.00;101447.13;4195802;28;20024;-72
2023/09/13 02:33:40;;;;;;;4.53;1.65;;;14.70;99.90;;;14.05;100.00;101450.13;4187163;28;20030;-73
2023/09/13 02:35:41;;;;;;;2.33;1.10;;;14.70;99.90;;;14.02;100.00;101447.78;4192718;28;20020;-72
2023/09/13 02:37:42;;;;;;;4.68;1.05;;;14.70;99.90;;;14.00;100.00;101444.47;4192821;28;20045;-72
2023/09/13 02:39:43;;;;;;;3.65;1.30;;;14.60;99.90;;;14.00;100.00;101444.47;4195362;28;20021;-72
2023/09/13 02:41:43;;;;;;;5.22;1.10;;;14.60;99.90;;;13.96;100.00;101445.78;4186556;28;20052;-72
2023/09/13 02:43:45;;;;;;;6.13;1.27;;;14.60;99.90;;;13.91;100.00;101450.75;4202173;28;20032;-72
2023/09/13 02:45:45;;;;;;;3.90;1.10;;;14.50;99.90;;;13.83;100.00;101456.00;4201890;28;20024;-72
2023/09/13 02:47:46;;;;;;;4.78;1.27;;;14.40;99.90;;;13.75;100.00;101462.09;4202059;28;20028;-72
2023/09/13 02:49:47;;;;;;;4.00;1.65;;;14.40;99.90;;;13.68;100.00;101466.38;4201914;28;20051;-72
2023/09/13 02:51:48;;;;;;;5.88;1.33;;;14.30;99.90;;;13.62;100.00;101460.88;4201991;28;20039;-72
2023/09/13 02:53:49;;;;;;;5.00;1.67;;;14.30;99.90;;;13.54;100.00;101463.47;4202044;28;20023;-72
2023/09/13 02:55:50;;;;;;;3.67;1.70;;;14.20;99.90;;;13.49;100.00;101468.44;4198581;28;20020;-72
2023/09/13 02:57:53;;;;;;;4.13;1.40;;;14.10;99.90;;;13.43;100.00;101463.75;4201841;28;20031;-72
2023/09/13 02:59:54;;;;;;;4.22;1.77;;;14.00;99.90;;;13.38;100.00;101468.69;4196557;28;20559;-72
2023/09/13 03:01:55;;;;;;;4.80;1.35;;;14.00;99.90;;;13.32;100.00;101464.03;4185370;28;20033;-72
2023/09/13 03:03:55;;;;;;;9.70;2.22;;;14.00;99.90;;;13.30;100.00;101465.00;4189542;28;20017;-72
2023/09/13 03:06:17;;;;;;;6.20;1.50;;;13.90;99.90;;;13.28;100.00;101466.16;4188019;28;20029;-72
2023/09/13 03:08:18;;;;;;;4.60;1.40;;;13.90;99.90;;;13.21;100.00;101473.88;4190215;28;20033;-72
2023/09/13 03:10:19;;;;;;;5.05;1.77;;;13.80;99.90;;;13.17;100.00;101464.56;4185338;28;20024;-72
2023/09/13 03:12:20;;;;;;;8.55;1.67;;;13.80;99.90;;;13.16;100.00;101457.63;4184230;28;20033;-72
2023/09/13 03:14:21;;;;;;;4.60;1.70;;;13.80;99.90;;;13.11;100.00;101464.38;4185096;28;20029;-72
2023/09/13 03:16:22;;;;;;;6.55;1.88;;;13.70;99.90;;;13.07;100.00;101463.00;4185098;28;20029;-72
2023/09/13 03:18:23;;;;;;;5.30;1.60;;;13.70;99.90;;;13.04;100.00;101463.28;4185214;28;20099;-72
2023/09/13 03:20:24;;;;;;;4.30;1.90;;;13.70;99.90;;;13.00;100.00;101465.41;4185074;28;20025;-72
2023/09/13 03:22:25;;;;;;;4.68;1.85;;;13.60;99.90;;;12.96;100.00;101461.41;4185278;28;21616;-72
2023/09/13 03:24:26;;;;;;;5.95;2.00;;;13.60;99.90;;;12.96;100.00;101466.69;4185318;28;20025;-72
2023/09/13 03:26:27;;;;;;;7.68;2.00;;;13.50;99.90;;;12.93;100.00;101452.97;4185162;28;20044;-72
2023/09/13 03:28:28;;;;;;;5.15;2.30;;;13.50;99.90;;;12.89;100.00;101455.06;4185105;28;20021;-72
2023/09/13 03:30:29;;;;;;;5.75;1.95;;;13.50;99.90;;;12.86;100.00;101455.38;4186788;28;20445;-72
2023/09/13 03:32:30;;;;;;;4.65;2.10;;;13.50;99.90;;;12.83;100.00;101460.97;4185020;28;20047;-72
2023/09/13 03:34:30;;;;;;;5.38;1.80;;;13.50;99.90;;;12.80;100.00;101457.81;4185061;28;20036;-72
2023/09/13 03:36:31;;;;;;;6.22;2.08;;;13.40;99.90;;;12.74;100.00;101456.59;4186995;28;20029;-72
2023/09/13 03:38:32;;;;;;;5.40;1.70;;;13.40;99.90;;;12.69;100.00;101438.50;4199023;28;20045;-72
2023/09/13 03:40:33;;;;;;;6.22;1.65;;;13.30;99.90;;;12.68;100.00;101451.91;4183790;28;20029;-72
2023/09/13 03:42:34;;;;;;;4.72;1.77;;;13.30;99.90;;;12.65;100.00;101460.16;4184064;28;20048;-72
2023/09/13 03:44:35;;;;;;;4.88;1.60;;;13.30;99.90;;;12.62;100.00;101460.47;4196442;28;20081;-72
2023/09/13 03:46:37;;;;;;;5.05;1.75;;;13.30;99.90;;;12.59;100.00;101456.31;4185554;28;20025;-72
2023/09/13 03:48:39;;;;;;;5.90;1.85;;;13.20;99.90;;;12.56;100.00;101463.72;4185033;28;20174;-72
2023/09/13 03:50:40;;;;;;;3.03;1.60;;;13.20;99.90;;;12.55;100.00;101464.69;4185067;28;20025;-72
2023/09/13 03:52:41;;;;;;;8.13;1.73;;;13.20;99.90;;;12.53;100.00;101459.56;4195105;28;20037;-72
2023/09/13 03:54:42;;;;;;;6.30;1.75;;;13.20;99.90;;;12.50;100.00;101454.56;4184782;28;20025;-72
2023/09/13 03:56:43;;;;;;;7.93;1.80;;;13.20;99.90;;;12.50;100.00;101459.03;4184965;28;20066;-72
2023/09/13 03:58:44;;;;;;;4.80;1.70;;;13.10;99.90;;;12.48;100.00;101461.84;4184884;28;20021;-72
2023/09/13 04:00:45;;;;;;;7.28;1.95;;;13.10;99.90;;;12.47;100.00;101465.47;4184413;28;20029;-72
2023/09/13 04:02:45;;;;;;;9.32;2.10;;;13.10;99.90;;;12.47;100.00;101462.81;4197753;28;20025;-72
2023/09/13 04:04:46;;;;;;;8.15;1.90;;;13.10;99.90;;;12.46;100.00;101460.28;4184829;28;20033;-72
2023/09/13 04:06:47;;;;;;;11.38;2.72;;;13.10;99.90;;;12.46;100.00;101458.50;4190934;28;20023;-72
2023/09/13 04:08:48;;;;;;;4.43;1.90;;;13.10;99.90;;;12.46;100.00;101461.13;4189166;28;20037;-72
2023/09/13 04:10:49;;;;;;;7.10;2.00;;;13.00;99.90;;;12.46;100.00;101468.22;4184649;28;20036;-72
2023/09/13 04:12:50;;;;;;;4.55;1.63;;;13.10;99.90;;;12.41;100.00;101460.75;4184859;28;20126;-72
2023/09/13 04:14:52;;;;;;;8.43;2.20;;;13.10;99.90;;;12.44;100.00;101467.56;4190421;28;20090;-72
2023/09/13 04:16:53;;;;;;;7.38;1.95;;;13.00;99.90;;;12.43;100.00;101468.53;4184867;28;20029;-72
2023/09/13 04:18:53;;;;;;;8.05;2.50;;;13.00;99.90;;;12.41;100.00;101468.69;4197108;28;20027;-72
2023/09/13 04:20:54;;;;;;;4.63;2.10;;;13.10;99.90;;;12.38;100.00;101460.22;4183593;28;20044;-72
2023/09/13 04:22:55;;;;;;;9.02;2.50;;;13.00;99.90;;;12.39;100.00;101469.84;4190520;28;20504;-72
2023/09/13 04:24:56;;;;;;;5.43;1.88;;;13.00;99.90;;;12.34;100.00;101464.13;4196292;28;20036;-72
2023/09/13 04:26:57;;;;;;;10.05;2.60;;;13.00;99.90;;;12.31;100.00;101457.34;4199628;28;20025;-72
2023/09/13 04:28:57;;;;;;;11.07;2.17;;;12.90;99.90;;;12.29;100.00;101455.84;4204191;28;20577;-72
2023/09/13 04:30:59;;;;;;;8.52;2.42;;;12.90;99.90;;;12.31;100.00;101467.09;4203969;28;20051;-72
2023/09/13 04:33:05;;;;;;;4.90;2.25;;;12.90;99.90;;;12.26;100.00;101467.56;4193294;28;20059;-72
2023/09/13 04:35:11;;;;;;;6.45;2.45;;;12.90;99.90;;;12.23;100.00;101464.38;4189782;28;20054;-73
2023/09/13 04:37:13;;;;;;;5.13;1.58;;;12.90;99.90;;;12.23;100.00;101464.38;4189857;28;20407;-72
2023/09/13 04:39:13;;;;;;;6.72;1.95;;;12.90;99.90;;;12.20;100.00;101468.97;4186316;28;20025;-72
2023/09/13 04:41:16;;;;;;;4.75;1.95;;;12.80;99.90;;;12.19;100.00;101466.47;4194708;28;20046;-72
2023/09/13 04:43:17;;;;;;;6.20;2.10;;;12.80;99.90;;;12.15;100.00;101473.06;4198512;28;20526;-72
2023/09/13 04:45:19;;;;;;;6.45;1.80;;;12.80;99.90;;;12.11;100.00;101477.81;4190035;28;20021;-72
2023/09/13 04:47:20;;;;;;;8.02;2.10;;;12.80;99.90;;;12.10;100.00;101476.13;4193438;28;20158;-72
2023/09/13 04:49:21;;;;;;;6.93;1.98;;;12.80;99.90;;;12.07;100.00;101483.53;4187257;28;20104;-72
2023/09/13 04:51:22;;;;;;;5.35;1.73;;;12.70;99.90;;;12.03;100.00;101487.47;4199512;28;20415;-72
2023/09/13 04:53:22;;;;;;;7.40;2.47;;;12.70;99.90;;;12.00;100.00;101480.66;4190993;28;20028;-72
2023/09/13 04:55:24;;;;;;;7.82;2.70;;;12.60;99.90;;;11.99;100.00;101486.91;4195676;28;20025;-72
2023/09/13 04:57:25;;;;;;;10.68;2.25;;;12.70;99.90;;;11.99;100.00;101476.34;4186175;28;20123;-72
2023/09/13 04:59:44;;;;;;;7.05;2.35;;;12.60;99.90;;;12.00;100.00;101471.88;4200856;28;20025;-72
2023/09/13 05:01:45;;;;;;;5.00;2.00;;;12.60;99.90;;;11.98;100.00;101474.66;4196661;28;20025;-72
2023/09/13 05:03:47;;;;;;;7.38;2.17;;;12.60;99.90;;;11.98;100.00;101468.53;4187067;28;20029;-72
2023/09/13 05:05:48;;;;;;;8.40;2.05;;;12.60;99.90;;;11.97;100.00;101477.47;4187066;28;20032;-72
2023/09/13 05:07:49;;;;;;;6.10;2.28;;;12.60;99.90;;;11.95;100.00;101474.94;4187000;28;20033;-72
2023/09/13 05:09:50;;;;;;;5.40;2.03;;;12.60;99.90;;;11.91;100.00;101473.59;4191234;28;20028;-72
2023/09/13 05:11:51;;;;;;;5.97;2.08;;;12.60;99.90;;;11.91;100.00;101476.25;4187071;28;20063;-72
2023/09/13 05:14:12;;;;;;;6.60;2.13;;;12.60;99.90;;;11.91;100.00;101480.69;4186880;28;20120;-72
2023/09/13 05:16:19;;;;;;;6.88;2.15;;;12.60;99.90;;;11.89;100.00;101474.69;4189985;28;20021;-72
2023/09/13 05:18:20;;;;;;;4.93;2.13;;;12.50;99.90;;;11.89;100.00;101480.81;4193849;28;20029;-72
2023/09/13 05:20:21;;;;;;;3.38;2.00;;;12.50;99.90;;;11.87;100.00;101482.78;4197586;28;20098;-72
2023/09/13 05:22:22;;;;;;;5.63;1.88;;;12.50;99.90;;;11.84;100.00;101483.09;4200639;28;20032;-72
2023/09/13 05:24:23;;;;;;;3.10;1.60;;;12.50;99.90;;;11.87;100.00;101497.81;4203466;28;20032;-72
2023/09/13 05:26:24;;;;;;;7.53;2.22;;;12.50;99.90;;;11.87;100.00;101492.53;4203243;28;20024;-72
2023/09/13 05:28:24;;;;;;;5.07;2.38;;;12.50;99.90;;;11.86;100.00;101490.84;4200841;28;20096;-72
2023/09/13 05:30:31;;;;;;;4.53;1.90;;;12.50;99.90;;;11.85;100.00;101495.34;4203011;28;20032;-72
2023/09/13 05:32:32;;;;;;;4.47;1.50;;;12.50;99.90;;;11.82;100.00;101498.28;4196931;28;20037;-72
2023/09/13 05:34:33;;;;;;;6.35;1.98;;;12.50;99.90;;;11.81;100.00;101495.75;4185823;28;20392;-72
2023/09/13 05:36:33;;;;;;;7.88;2.13;;;12.50;99.90;;;11.76;100.00;101490.91;4190271;28;20021;-72
2023/09/13 05:38:34;;;;;;;7.22;2.20;;;12.40;99.90;;;11.77;100.00;101487.28;4200068;28;20110;-72
2023/09/13 05:40:35;;;;;;;6.38;2.13;;;12.50;99.90;;;11.80;100.00;101491.47;4185321;28;20033;-72
2023/09/13 05:42:36;;;;;;;5.72;2.05;;;12.40;99.90;;;11.80;100.00;101497.56;4194927;28;20029;-72
2023/09/13 05:44:37;;;;;;;7.85;2.60;;;12.40;99.90;;;11.79;100.00;101500.38;4203098;28;20027;-72
2023/09/13 05:46:38;;;;;;;5.40;1.65;;;12.40;99.90;;;11.79;100.00;101500.38;4202705;28;20028;-72
2023/09/13 05:48:39;;;;;;;7.75;2.67;;;12.40;99.90;;;11.81;100.00;101507.16;4203021;28;20032;-72
2023/09/13 05:50:40;;;;;;;8.43;2.67;;;12.40;99.90;;;11.82;100.00;101505.38;4201736;28;20017;-72
2023/09/13 05:52:41;;;;;;;4.85;2.40;;;12.40;99.90;;;11.83;100.00;101513.13;4202738;28;20037;-72
2023/09/13 05:54:42;;;;;;;5.22;2.17;;;12.50;99.90;;;11.83;100.00;101514.94;4188155;28;20528;-72
2023/09/13 05:56:44;;;;;;;7.32;2.83;;;12.50;99.90;;;11.87;100.00;101530.38;4189965;28;20028;-72
2023/09/13 05:58:45;;;;;;;6.22;2.33;;;12.50;99.90;;;11.88;100.00;101516.19;4186300;28;20481;-72
2023/09/13 06:00:48;;;;;;;7.18;2.47;;;12.50;99.90;;;11.88;100.00;101523.28;4186026;28;20029;-72
2023/09/13 06:02:49;;;;;;;4.50;2.20;;;12.50;99.90;;;11.89;100.00;101528.41;4200252;28;20032;-72
2023/09/13 06:04:50;;;;;;;6.57;1.80;;;12.50;99.90;;;11.88;100.00;101516.19;4202776;28;20032;-72
2023/09/13 06:06:51;;;;;;;8.02;1.85;;;12.50;99.90;;;11.87;100.00;101519.81;4201426;28;20107;-72
2023/09/13 06:08:52;;;;;;;9.02;2.33;;;12.50;99.90;;;11.91;100.00;101528.28;4201460;28;20024;-72
2023/09/13 06:10:53;;;;;;;4.03;2.72;;;12.50;99.90;;;11.90;100.00;101519.53;4202528;28;20036;-72
2023/09/13 06:12:54;;;;;;;8.73;2.05;;;12.50;99.90;;;11.92;100.00;101516.72;4198016;28;20112;-72
2023/09/13 06:14:57;;;;;;;5.90;2.28;;;12.60;99.90;;;11.93;100.00;101529.81;4192405;28;20020;-72
2023/09/13 06:16:58;;;;;;;5.72;2.42;;;12.60;99.90;;;11.95;100.00;101537.56;4201265;28;20069;-72
2023/09/13 06:18:59;;;;;;;9.65;1.80;;;12.60;99.90;;;11.97;100.00;101533.84;4199193;28;20020;-72
2023/09/13 06:21:00;;;;;;;7.25;2.30;;;12.60;99.90;;;11.98;100.00;101534.63;4184735;28;20017;-72
2023/09/13 06:23:01;;;;;;;8.98;2.17;;;12.60;99.90;;;12.00;100.00;101532.69;4189783;28;20455;-72
2023/09/13 06:25:03;;;;;;;8.20;2.08;;;12.60;99.90;;;12.02;100.00;101534.22;4184651;28;20029;-72
2023/09/13 06:27:04;;;;;;;8.20;2.55;;;12.60;99.90;;;12.04;100.00;101534.91;4185890;28;20052;-72
2023/09/13 06:29:05;;;;;;;6.57;2.78;;;12.70;99.90;;;12.06;100.00;101537.41;4200867;28;20492;-72
2023/09/13 06:31:08;;;;;;;10.43;2.40;;;12.70;99.90;;;12.09;100.00;101543.25;4184450;28;20025;-72
2023/09/13 06:33:09;;;;;;;8.20;2.30;;;12.70;99.90;;;12.14;100.00;101542.78;4198244;28;20043;-72
2023/09/13 06:35:11;;;;;;;10.98;2.38;;;12.70;99.90;;;12.16;100.00;101546.09;4189722;28;20021;-72
2023/09/13 06:37:12;;;;;;;7.65;3.20;;;12.80;99.90;;;12.20;100.00;101540.41;4184441;28;20025;-72
2023/09/13 06:39:13;;;;;;;7.03;2.67;;;12.80;99.90;;;12.26;100.00;101540.78;4193356;28;20099;-72
2023/09/13 06:41:14;;;;;;;6.30;2.58;;;12.90;99.90;;;12.31;100.00;101539.34;4202046;28;20020;-73
2023/09/13 06:43:15;;;;;;;7.32;3.00;;;12.90;99.90;;;12.35;100.00;101539.91;4199934;28;20024;-72
2023/09/13 06:45:16;;;;;;;4.30;2.30;;;13.00;99.90;;;12.42;100.00;101538.34;4185425;28;20031;-73
2023/09/13 06:47:17;;;;;;;9.07;2.80;;;13.10;99.90;;;12.48;100.00;101546.53;4185776;28;20025;-73
2023/09/13 06:49:17;;;;;;;11.07;3.53;;;13.10;99.90;;;12.53;100.00;101548.69;4185591;28;20025;-72
2023/09/13 06:51:18;;;;;;;5.00;2.65;;;13.20;99.90;;;12.59;100.00;101548.94;4197788;28;20043;-72
2023/09/13 06:53:19;;;;;;;6.68;3.25;;;13.20;99.90;;;12.65;100.00;101547.50;4196968;28;20032;-73
2023/09/13 06:55:20;;;;;;;9.35;4.10;;;13.30;99.90;;;12.70;100.00;101546.06;4190796;28;20025;-72
2023/09/13 06:57:21;;;;;;;9.52;3.58;;;13.30;99.90;;;12.76;100.00;101550.78;4185602;28;20063;-72
2023/09/13 06:59:22;;;;;;;5.20;3.20;;;13.40;99.90;;;12.81;100.00;101547.69;4187750;28;20023;-73
2023/09/13 07:01:22;;;;;;;7.53;2.95;;;13.50;99.90;;;12.89;100.00;101554.88;4200283;28;20032;-72
2023/09/13 07:03:23;;;;;;;6.22;3.17;;;13.50;99.90;;;12.92;100.00;101549.25;4194319;28;20025;-72
2023/09/13 07:05:24;;;;;;;8.10;3.22;;;13.60;99.90;;;12.98;100.00;101553.97;4185357;28;20029;-72
2023/09/13 07:07:25;;;;;;;7.30;3.00;;;13.60;99.90;;;13.05;100.00;101552.38;4185332;28;20029;-72
2023/09/13 07:09:26;;;;;;;6.95;2.30;;;13.70;99.90;;;13.08;100.00;101552.91;4185168;28;20060;-72
2023/09/13 07:11:28;;;;;;;9.48;2.75;;;13.70;99.90;;;13.15;100.00;101561.91;4190070;28;20028;-72
2023/09/13 07:13:29;;;;;;;7.20;3.53;;;13.80;99.90;;;13.22;100.00;101557.69;4190947;28;20029;-72
2023/09/13 07:15:30;;;;;;;12.27;3.53;;;13.90;99.90;;;13.34;100.00;101560.09;4197490;28;20024;-72
2023/09/13 07:17:31;;;;;;;9.80;3.17;;;14.00;99.90;;;13.39;100.00;101563.09;4200108;28;20496;-73
2023/09/13 07:19:31;;;;;;;8.73;3.28;;;14.00;99.90;;;13.44;100.00;101561.66;4201881;28;20025;-72
2023/09/13 07:21:32;;;;;;;8.18;2.40;;;14.10;99.90;;;13.46;100.00;101559.69;4201840;28;20031;-73
2023/09/13 07:23:34;;;;;;;5.78;2.88;;;14.20;99.90;;;13.52;100.00;101567.03;4175182;28;20029;-73
2023/09/13 07:25:35;;;;;;;6.78;2.45;;;14.20;99.90;;;13.56;100.00;101565.72;4185019;28;20052;-72
2023/09/13 07:27:35;;;;;;;9.18;3.63;;;14.20;99.90;;;13.61;100.00;101567.91;4189021;28;20020;-73
2023/09/13 07:29:36;;;;;;;6.30;2.28;;;14.30;99.90;;;13.67;100.00;101572.59;4185272;28;20029;-72
2023/09/13 07:31:37;;;;;;;7.45;1.83;;;14.40;99.90;;;13.72;100.00;101578.25;4185190;28;20025;-72
2023/09/13 07:33:38;;;;;;;7.72;2.30;;;14.40;99.90;;;13.76;100.00;101576.97;4186888;28;20040;-72
2023/09/13 07:35:39;;;;;;;4.10;1.92;;;14.50;99.90;;;13.77;100.00;101574.13;4191971;28;20017;-72
2023/09/13 07:37:40;;;;;;;6.90;1.90;;;14.50;99.90;;;13.84;100.00;101583.16;4201576;28;20049;-72
2023/09/13 07:39:42;;;;;;;4.55;1.55;;;14.50;99.90;;;13.86;100.00;101589.13;4201715;28;20035;-72
2023/09/13 07:41:42;;;;;;;4.78;1.48;;;14.60;99.90;;;13.94;100.00;101588.34;4201293;28;20103;-72
2023/09/13 07:43:43;;;;;;;12.05;2.75;;;14.60;99.90;;;13.99;100.00;101596.66;4197487;28;20090;-72
2023/09/13 07:45:46;;;;;;;5.65;1.70;;;14.70;99.90;;;14.05;100.00;101596.03;4184890;28;20029;-72
2023/09/13 07:47:47;;;;;;;5.72;2.17;;;14.70;99.90;;;14.10;100.00;101596.38;4194819;28;20028;-72
2023/09/13 07:49:48;;;;;;;7.45;2.30;;;14.80;99.90;;;14.14;100.00;101596.91;4192420;28;20484;-72
2023/09/13 07:51:49;;;;;;;7.57;2.00;;;14.80;99.90;;;14.23;100.00;101591.47;4187834;28;20028;-72
2023/09/13 07:53:53;;;;;;;9.70;2.13;;;14.90;99.90;;;14.27;100.00;101597.31;4183563;28;20507;-73
2023/09/13 07:55:55;;;;;;;5.85;1.75;;;15.00;99.90;;;14.34;100.00;101593.88;4210950;28;20399;-72
2023/09/13 07:57:56;;;;;;;6.05;2.45;;;15.10;99.90;;;14.40;100.00;101601.19;4200636;28;20487;-72
2023/09/13 07:59:57;;;;;;;6.70;2.85;;;15.10;99.90;;;14.49;100.00;101606.53;4203371;28;20032;-72
2023/09/13 08:01:58;;;;;;;7.25;2.55;;;15.20;99.90;;;14.59;100.00;101610.72;4199810;28;20021;-72
2023/09/13 08:03:59;;;;;;;8.40;3.03;;;15.30;99.90;;;14.67;100.00;101609.91;4194152;28;20523;-72
2023/09/13 08:06:03;;;;;;;6.28;2.00;;;15.30;99.90;;;14.74;100.00;101617.09;4188019;28;20488;-72
2023/09/13 08:08:04;;;;;;;8.02;2.47;;;15.40;99.90;;;14.81;100.00;101617.28;4188101;28;20021;-72
2023/09/13 08:10:06;;;;;;;7.03;2.53;;;15.50;99.90;;;14.89;100.00;101619.94;4194195;28;20492;-72
2023/09/13 08:12:07;;;;;;;8.45;2.55;;;15.50;99.90;;;14.94;100.00;101617.63;4191605;28;20088;-72
2023/09/13 08:14:08;;;;;;;9.90;2.90;;;15.60;99.90;;;15.05;100.00;101621.81;4190919;28;20029;-72
2023/09/13 08:16:09;;;;;;;6.30;2.33;;;15.70;99.90;;;15.11;100.00;101632.63;4187728;28;20052;-72
2023/09/13 08:18:10;;;;;;;6.18;2.20;;;15.70;99.90;;;15.19;100.00;101629.97;4187931;28;20032;-72
2023/09/13 08:20:11;;;;;;;7.78;2.50;;;15.80;99.90;;;15.26;100.00;101628.28;4187856;28;20388;-72
2023/09/13 08:22:12;;;;;;;8.02;2.72;;;15.90;99.90;;;15.31;100.00;101630.47;4200180;28;20024;-72